Time;durP1;ratioP1;P1;durP2;ratioP2;P2;SDS_P1;SDS_P2;PMS_P1;PMS_P2;Temp;Humidity;BMP_temperature;BMP_pressure;BME280_temperature;BME280_humidity;BME280_pressure;Samples;Min_cycle;Max_cycle;Signal;HPM_P1;HPM_P2
2022/04/12 00:00:30;;;;;;;14.00;3.38;;;12.30;99.90;;;;;;5034212;28;20028;-61
2022/04/12 00:02:56;;;;;;;12.07;3.40;;;12.30;99.90;;;;;;5028413;28;20022;-61
2022/04/12 00:05:22;;;;;;;15.75;3.15;;;12.30;99.90;;;;;;5039212;28;20033;-61
2022/04/12 00:07:48;;;;;;;11.98;2.90;;;12.20;99.90;;;;;;5036590;28;20025;-61
2022/04/12 00:10:14;;;;;;;14.85;3.20;;;12.30;99.90;;;;;;5037929;28;20087;-60
2022/04/12 00:12:41;;;;;;;15.75;3.38;;;12.30;99.90;;;;;;5037857;28;20048;-61
2022/04/12 00:15:08;;;;;;;11.82;3.13;;;12.30;99.90;;;;;;5035144;28;20033;-61
2022/04/12 00:20:21;;;;;;;12.43;3.15;;;12.30;99.90;;;;;;5047404;28;20044;-61
2022/04/12 00:22:47;;;;;;;15.18;3.35;;;12.30;99.90;;;;;;5038030;28;20037;-60
2022/04/12 00:25:13;;;;;;;14.82;3.55;;;12.30;99.90;;;;;;5035824;28;20021;-60
2022/04/12 00:27:41;;;;;;;14.13;3.33;;;12.30;99.90;;;;;;5036314;28;20021;-61
2022/04/12 00:30:08;;;;;;;16.63;3.38;;;12.20;99.90;;;;;;5034049;28;20521;-60
2022/04/12 00:32:35;;;;;;;12.75;3.22;;;12.20;99.90;;;;;;5034489;28;20029;-61
2022/04/12 00:35:02;;;;;;;16.00;3.58;;;12.20;99.90;;;;;;5038699;28;20033;-61
2022/04/12 00:37:28;;;;;;;14.68;3.47;;;12.20;99.90;;;;;;5037382;28;20033;-61
2022/04/12 00:39:54;;;;;;;16.55;3.50;;;12.20;99.90;;;;;;5037235;28;20083;-61
2022/04/12 00:42:20;;;;;;;15.35;3.33;;;12.20;99.90;;;;;;5033942;28;20399;-61
2022/04/12 00:44:46;;;;;;;14.73;3.13;;;12.20;99.90;;;;;;5033041;28;20044;-61
2022/04/12 00:47:12;;;;;;;15.05;3.53;;;12.20;99.90;;;;;;5038745;28;20017;-61
2022/04/12 00:49:37;;;;;;;13.38;3.30;;;12.20;99.90;;;;;;5036941;28;20032;-61
2022/04/12 00:52:04;;;;;;;12.90;3.33;;;12.10;99.90;;;;;;5036748;28;20029;-61
2022/04/12 00:54:33;;;;;;;15.20;3.60;;;12.20;99.90;;;;;;5036815;28;20028;-61
2022/04/12 00:56:59;;;;;;;18.77;3.85;;;12.20;99.90;;;;;;5033595;28;20063;-61
2022/04/12 00:59:26;;;;;;;14.80;3.30;;;12.10;99.90;;;;;;5037669;28;20061;-61
2022/04/12 01:01:52;;;;;;;15.20;3.15;;;12.10;99.90;;;;;;5035575;28;20025;-61
2022/04/12 01:04:19;;;;;;;18.85;3.40;;;12.10;99.90;;;;;;5035768;28;20021;-61
2022/04/12 01:06:46;;;;;;;17.33;3.38;;;12.10;99.90;;;;;;5035343;28;20454;-61
2022/04/12 01:09:12;;;;;;;13.98;3.40;;;12.10;99.90;;;;;;5034982;28;20017;-61
2022/04/12 01:11:39;;;;;;;20.70;4.03;;;12.10;99.90;;;;;;5033931;28;20041;-61
2022/04/12 01:14:07;;;;;;;18.50;4.13;;;12.10;99.90;;;;;;5037493;28;20034;-61
2022/04/12 01:16:33;;;;;;;18.95;3.60;;;12.20;99.90;;;;;;5035759;28;20037;-60
2022/04/12 01:18:59;;;;;;;14.05;3.58;;;12.20;99.90;;;;;;5036627;28;20017;-61
2022/04/12 01:21:30;;;;;;;15.68;3.50;;;12.30;99.90;;;;;;5035154;28;20029;-61
2022/04/12 01:24:02;;;;;;;21.90;4.28;;;12.20;99.90;;;;;;5017204;28;20505;-62
2022/04/12 01:26:28;;;;;;;20.52;3.28;;;12.20;99.90;;;;;;5036455;28;20033;-61
2022/04/12 01:28:54;;;;;;;19.52;4.32;;;12.20;99.90;;;;;;5037085;28;20033;-61
2022/04/12 01:31:20;;;;;;;12.18;3.25;;;12.20;99.90;;;;;;5035977;28;20044;-61
2022/04/12 01:33:46;;;;;;;15.00;3.30;;;12.30;99.90;;;;;;5036740;28;20044;-61
2022/04/12 01:36:12;;;;;;;19.70;3.72;;;12.30;99.90;;;;;;5034409;28;20409;-61
2022/04/12 01:38:38;;;;;;;18.08;3.78;;;12.40;99.90;;;;;;5033792;28;20033;-61
2022/04/12 01:41:04;;;;;;;15.00;3.40;;;12.30;99.90;;;;;;5038345;28;20021;-61
2022/04/12 01:43:30;;;;;;;13.65;3.70;;;12.30;99.90;;;;;;5034825;28;20033;-61
2022/04/12 01:45:56;;;;;;;16.20;3.88;;;12.40;99.90;;;;;;5034431;28;20076;-61
2022/04/12 01:48:21;;;;;;;17.25;4.03;;;12.40;99.90;;;;;;5035594;28;20025;-61
2022/04/12 01:50:48;;;;;;;14.43;3.97;;;12.40;99.90;;;;;;5032122;28;20045;-61
2022/04/12 01:53:14;;;;;;;18.08;3.72;;;12.50;99.90;;;;;;5038240;28;20037;-61
2022/04/12 01:55:40;;;;;;;21.52;3.70;;;12.50;99.90;;;;;;5036046;28;20030;-61
2022/04/12 01:58:05;;;;;;;17.17;3.72;;;12.50;99.90;;;;;;5035930;28;20104;-61
2022/04/12 02:00:31;;;;;;;13.63;3.35;;;12.50;99.90;;;;;;5034265;28;20025;-61
2022/04/12 02:02:57;;;;;;;17.15;3.28;;;12.50;99.90;;;;;;5032315;28;20018;-61
2022/04/12 02:05:23;;;;;;;15.75;3.40;;;12.50;99.90;;;;;;5037252;28;20040;-61
2022/04/12 02:07:48;;;;;;;15.50;4.03;;;12.50;99.90;;;;;;5035935;28;20013;-61
2022/04/12 02:10:14;;;;;;;16.55;3.30;;;12.50;99.90;;;;;;5036192;28;20038;-61
2022/04/12 02:12:40;;;;;;;16.45;3.55;;;12.40;99.90;;;;;;5035592;28;20525;-60
2022/04/12 02:15:06;;;;;;;15.73;3.88;;;12.40;99.90;;;;;;5032698;28;20532;-61
2022/04/12 02:17:32;;;;;;;22.38;4.32;;;12.40;99.90;;;;;;5035149;28;20021;-61
2022/04/12 02:19:57;;;;;;;19.10;4.22;;;12.50;99.90;;;;;;5036764;28;20021;-60
2022/04/12 02:22:23;;;;;;;15.88;3.63;;;12.40;99.90;;;;;;5034350;28;20032;-61
2022/04/12 02:24:49;;;;;;;16.50;3.95;;;12.50;99.90;;;;;;5033856;28;20033;-61
2022/04/12 02:27:15;;;;;;;14.23;3.70;;;12.50;99.90;;;;;;5032864;28;20040;-61
2022/04/12 02:29:40;;;;;;;17.45;3.70;;;12.50;99.90;;;;;;5032670;28;20056;-60
2022/04/12 02:32:07;;;;;;;16.13;3.92;;;12.50;99.90;;;;;;5037219;28;20041;-61
2022/04/12 02:34:32;;;;;;;15.50;4.22;;;12.50;99.90;;;;;;5035285;28;20018;-62
2022/04/12 02:36:58;;;;;;;20.10;4.50;;;12.50;99.90;;;;;;5035116;28;20049;-61
2022/04/12 02:39:24;;;;;;;14.93;3.78;;;12.50;99.90;;;;;;5033920;28;20051;-61
2022/04/12 02:41:50;;;;;;;16.17;4.03;;;12.50;99.90;;;;;;5031094;28;20221;-61
2022/04/12 02:44:17;;;;;;;15.95;3.95;;;12.60;99.90;;;;;;5036821;28;20049;-61
2022/04/12 02:46:43;;;;;;;17.30;4.18;;;12.60;99.90;;;;;;5035061;28;20040;-61
2022/04/12 02:49:08;;;;;;;16.80;4.00;;;12.50;99.90;;;;;;5035002;28;20021;-61
2022/04/12 02:51:34;;;;;;;14.32;3.47;;;12.50;99.90;;;;;;5034965;28;20128;-61
2022/04/12 02:54:00;;;;;;;17.80;4.43;;;12.60;99.90;;;;;;5031772;28;20025;-61
2022/04/12 02:56:26;;;;;;;18.85;4.18;;;12.60;99.90;;;;;;5035487;28;20022;-61
2022/04/12 02:58:51;;;;;;;21.30;4.07;;;12.60;99.90;;;;;;5033515;28;20045;-61
2022/04/12 03:01:17;;;;;;;16.73;4.18;;;12.60;99.90;;;;;;5033408;28;20025;-61
2022/04/12 03:03:43;;;;;;;17.13;4.05;;;12.60;99.90;;;;;;5033634;28;20493;-61
2022/04/12 03:06:09;;;;;;;15.02;3.70;;;12.60;99.90;;;;;;5032430;28;20029;-61
2022/04/12 03:08:35;;;;;;;15.07;3.80;;;12.60;99.90;;;;;;5033052;28;20061;-61
2022/04/12 03:11:00;;;;;;;16.80;4.30;;;12.60;99.90;;;;;;5035913;28;20026;-61
2022/04/12 03:13:26;;;;;;;14.68;3.95;;;12.60;99.90;;;;;;5033213;28;20025;-61
2022/04/12 03:15:52;;;;;;;14.95;3.88;;;12.60;99.90;;;;;;5034064;28;20028;-61
2022/04/12 03:18:18;;;;;;;16.17;3.97;;;12.60;99.90;;;;;;5032325;28;20021;-61
2022/04/12 03:20:45;;;;;;;19.02;4.38;;;12.60;99.90;;;;;;5031227;28;20061;-61
2022/04/12 03:23:11;;;;;;;16.00;4.20;;;12.60;99.90;;;;;;5036213;28;20022;-61
2022/04/12 03:25:37;;;;;;;18.70;3.78;;;12.60;99.90;;;;;;5034439;28;20032;-60
2022/04/12 03:28:03;;;;;;;18.95;4.63;;;12.60;99.90;;;;;;5034293;28;20027;-61
2022/04/12 03:30:28;;;;;;;19.85;4.18;;;12.60;99.90;;;;;;5034224;28;20401;-61
2022/04/12 03:32:54;;;;;;;19.15;4.40;;;12.70;99.90;;;;;;5030220;28;20030;-61
2022/04/12 03:35:21;;;;;;;17.75;4.15;;;12.60;99.90;;;;;;5043514;28;20056;-60
2022/04/12 03:37:47;;;;;;;16.90;3.92;;;12.60;99.90;;;;;;5034261;28;20112;-61
2022/04/12 03:40:14;;;;;;;15.77;4.30;;;12.60;99.90;;;;;;5032161;28;20096;-61
2022/04/12 03:42:39;;;;;;;20.25;4.10;;;12.60;99.90;;;;;;5032605;28;20033;-60
2022/04/12 03:45:06;;;;;;;16.70;3.97;;;12.60;99.90;;;;;;5031461;28;20494;-61
2022/04/12 03:47:32;;;;;;;18.77;4.03;;;12.60;99.90;;;;;;5033726;28;20033;-61
2022/04/12 03:49:57;;;;;;;17.10;4.05;;;12.50;99.90;;;;;;5034976;28;20552;-61
2022/04/12 03:52:23;;;;;;;17.85;3.88;;;12.60;99.90;;;;;;5034169;28;20071;-61
2022/04/12 03:54:49;;;;;;;17.98;3.67;;;12.50;99.90;;;;;;5033640;28;20057;-61
2022/04/12 03:57:17;;;;;;;17.58;4.45;;;12.50;99.90;;;;;;5031306;28;20040;-61
2022/04/12 03:59:43;;;;;;;18.65;4.20;;;12.50;99.90;;;;;;5031343;28;20068;-61
2022/04/12 04:02:08;;;;;;;16.70;4.20;;;12.50;99.90;;;;;;5035993;28;20487;-61
2022/04/12 04:04:34;;;;;;;16.80;4.10;;;12.50;99.90;;;;;;5033804;28;20121;-61
2022/04/12 04:07:00;;;;;;;20.23;4.53;;;12.40;99.90;;;;;;5034194;28;20068;-61
2022/04/12 04:09:26;;;;;;;11.95;3.42;;;12.50;99.90;;;;;;5033654;28;20017;-61
2022/04/12 04:11:51;;;;;;;19.48;4.00;;;12.40;99.90;;;;;;5029754;28;20038;-62
2022/04/12 04:14:17;;;;;;;16.30;4.43;;;12.40;99.90;;;;;;5035855;28;20028;-61
2022/04/12 04:16:43;;;;;;;18.17;4.38;;;12.50;99.90;;;;;;5033813;28;20100;-60
2022/04/12 04:19:09;;;;;;;18.08;3.90;;;12.40;99.90;;;;;;5032403;28;20423;-61
2022/04/12 04:21:36;;;;;;;19.58;4.20;;;12.20;99.90;;;;;;5032315;28;20116;-61
2022/04/12 04:24:02;;;;;;;19.30;4.45;;;12.20;99.90;;;;;;5030690;28;20022;-61
2022/04/12 04:26:28;;;;;;;16.13;3.95;;;11.80;99.90;;;;;;5033658;28;20079;-61
2022/04/12 04:28:54;;;;;;;18.65;4.30;;;11.80;99.90;;;;;;5034825;28;20029;-60
2022/04/12 04:31:20;;;;;;;20.48;4.57;;;11.80;99.90;;;;;;5033607;28;20076;-62
2022/04/12 04:33:46;;;;;;;22.27;4.50;;;11.70;99.90;;;;;;5033758;28;20083;-61
2022/04/12 04:36:12;;;;;;;18.67;4.57;;;11.70;99.90;;;;;;5030781;28;20125;-61
2022/04/12 04:38:37;;;;;;;16.42;4.03;;;11.60;99.90;;;;;;5030432;28;20041;-61
2022/04/12 04:41:03;;;;;;;15.50;4.15;;;11.80;99.90;;;;;;5033865;28;20025;-60
2022/04/12 04:43:29;;;;;;;15.98;4.40;;;11.70;99.90;;;;;;5032486;28;20072;-61
2022/04/12 04:45:55;;;;;;;16.98;4.47;;;11.80;99.90;;;;;;5033444;28;20025;-61
2022/04/12 04:48:21;;;;;;;17.42;4.30;;;11.70;99.90;;;;;;5033332;28;20126;-59
2022/04/12 04:50:47;;;;;;;19.33;4.22;;;11.70;99.90;;;;;;5030230;28;20473;-60
2022/04/12 04:53:12;;;;;;;17.50;4.35;;;11.60;99.90;;;;;;5038624;28;20040;-60
2022/04/12 04:55:42;;;;;;;22.77;5.05;;;11.40;99.90;;;;;;5037068;28;20029;-60
2022/04/12 04:58:09;;;;;;;19.80;4.25;;;11.30;99.90;;;;;;5035488;28;20407;-60
2022/04/12 05:00:34;;;;;;;17.70;4.93;;;11.20;99.90;;;;;;5035684;28;20027;-60
2022/04/12 05:03:02;;;;;;;21.38;4.70;;;11.40;99.90;;;;;;5033713;28;20021;-59
2022/04/12 05:05:28;;;;;;;16.83;5.05;;;11.30;99.90;;;;;;5036708;28;20026;-60
2022/04/12 05:07:56;;;;;;;18.88;5.65;;;11.20;99.90;;;;;;5036586;28;20026;-61
2022/04/12 05:10:28;;;;;;;17.42;5.38;;;11.20;99.90;;;;;;5036383;28;20036;-60
2022/04/12 05:12:55;;;;;;;22.80;8.10;;;11.20;99.90;;;;;;5036761;28;20432;-61
2022/04/12 05:15:21;;;;;;;20.65;5.88;;;11.30;99.90;;;;;;5034923;28;20128;-61
2022/04/12 05:17:50;;;;;;;21.25;6.22;;;11.20;99.90;;;;;;5032736;28;20093;-61
2022/04/12 05:20:16;;;;;;;17.27;5.70;;;11.10;99.90;;;;;;5038521;28;20032;-61
2022/04/12 05:22:42;;;;;;;19.33;5.35;;;11.10;99.90;;;;;;5035989;28;20057;-61
2022/04/12 05:25:08;;;;;;;23.73;7.90;;;11.10;99.90;;;;;;5036438;28;20435;-61
2022/04/12 05:27:36;;;;;;;23.67;6.13;;;11.10;99.90;;;;;;5036321;28;20024;-61
2022/04/12 05:30:05;;;;;;;22.05;5.20;;;11.10;99.90;;;;;;5032965;28;20033;-61
2022/04/12 05:32:33;;;;;;;21.55;7.07;;;11.00;99.90;;;;;;5034747;28;20117;-61
2022/04/12 05:34:58;;;;;;;18.67;5.07;;;11.20;99.90;;;;;;5037538;28;20026;-61
2022/04/12 05:37:24;;;;;;;17.65;5.70;;;11.20;99.90;;;;;;5034369;28;20052;-60
2022/04/12 05:39:50;;;;;;;24.20;8.52;;;11.30;99.90;;;;;;5034612;28;20029;-61
2022/04/12 05:42:15;;;;;;;25.73;8.60;;;11.30;99.90;;;;;;5035231;28;20029;-61
2022/04/12 05:44:41;;;;;;;21.42;5.95;;;11.20;99.90;;;;;;5033247;28;20026;-61
2022/04/12 05:47:10;;;;;;;18.45;4.50;;;11.20;99.90;;;;;;5037947;28;20045;-61
2022/04/12 05:49:36;;;;;;;18.50;4.95;;;11.30;99.90;;;;;;5035886;28;20037;-61
2022/04/12 05:52:02;;;;;;;15.52;4.30;;;11.40;99.90;;;;;;5035841;28;20049;-61
2022/04/12 05:54:28;;;;;;;20.90;5.28;;;11.40;99.90;;;;;;5034675;28;20031;-61
2022/04/12 05:56:53;;;;;;;21.17;6.03;;;11.40;99.90;;;;;;5031724;28;20022;-61
2022/04/12 05:59:19;;;;;;;19.30;5.60;;;11.40;99.90;;;;;;5037873;28;20036;-61
2022/04/12 06:01:45;;;;;;;16.85;5.75;;;11.40;99.90;;;;;;5035861;28;20061;-61
2022/04/12 06:04:10;;;;;;;14.73;4.13;;;11.40;99.90;;;;;;5035763;28;20021;-61
2022/04/12 06:06:36;;;;;;;15.93;4.57;;;11.40;99.90;;;;;;5030582;28;20037;-61
2022/04/12 06:09:03;;;;;;;16.63;4.60;;;11.40;99.90;;;;;;5031939;28;20025;-60
2022/04/12 06:11:29;;;;;;;13.35;4.38;;;11.40;99.90;;;;;;5032460;28;20079;-61
2022/04/12 06:13:54;;;;;;;17.85;5.00;;;11.40;99.90;;;;;;5036112;28;20033;-61
2022/04/12 06:16:21;;;;;;;14.35;4.88;;;11.30;99.90;;;;;;5034087;28;20029;-61
2022/04/12 06:18:46;;;;;;;14.73;4.57;;;11.30;99.90;;;;;;5033611;28;20120;-61
2022/04/12 06:21:12;;;;;;;18.20;4.85;;;11.40;99.90;;;;;;5033349;28;20464;-61
2022/04/12 06:23:38;;;;;;;16.27;5.13;;;11.40;99.90;;;;;;5032990;28;20076;-62
2022/04/12 06:26:04;;;;;;;18.85;4.53;;;11.40;99.90;;;;;;5036671;28;20391;-61
2022/04/12 06:28:30;;;;;;;16.88;4.93;;;11.40;99.90;;;;;;5033985;28;20539;-60
2022/04/12 06:30:58;;;;;;;19.50;6.28;;;11.50;99.90;;;;;;5035314;28;20573;-60
2022/04/12 06:33:24;;;;;;;18.58;6.50;;;11.50;99.90;;;;;;5035331;28;20028;-60
2022/04/12 06:35:51;;;;;;;17.08;7.15;;;11.50;99.90;;;;;;5030558;28;20097;-61
2022/04/12 06:38:18;;;;;;;20.92;5.18;;;11.50;99.90;;;;;;5037067;28;20056;-61
2022/04/12 06:40:45;;;;;;;17.27;6.18;;;11.60;99.90;;;;;;5035142;28;20516;-59
2022/04/12 06:43:11;;;;;;;20.42;6.32;;;11.70;99.90;;;;;;5035251;28;20068;-61
2022/04/12 06:45:38;;;;;;;20.42;5.25;;;11.70;99.90;;;;;;5035230;28;20029;-61
2022/04/12 06:48:04;;;;;;;17.50;4.80;;;11.80;99.90;;;;;;5031970;28;20037;-61
2022/04/12 06:50:30;;;;;;;17.95;4.55;;;11.80;99.90;;;;;;5034214;28;20021;-61
2022/04/12 06:52:57;;;;;;;17.00;4.70;;;11.80;99.90;;;;;;5035739;28;20040;-60
2022/04/12 06:55:23;;;;;;;20.25;4.82;;;11.80;99.90;;;;;;5033747;28;20040;-60
2022/04/12 06:57:49;;;;;;;21.40;6.13;;;12.00;99.90;;;;;;5033255;28;20112;-60
2022/04/12 07:00:18;;;;;;;18.38;5.05;;;11.90;99.90;;;;;;5033542;28;20040;-60
2022/04/12 07:02:44;;;;;;;20.67;5.40;;;12.00;99.90;;;;;;5031211;28;20041;-60
2022/04/12 07:05:10;;;;;;;19.60;5.20;;;12.10;99.90;;;;;;5036299;28;20382;-61
2022/04/12 07:07:37;;;;;;;14.90;4.53;;;12.00;99.90;;;;;;5034533;28;20033;-60
2022/04/12 07:10:11;;;;;;;17.90;4.57;;;12.10;99.90;;;;;;5034621;28;20021;-60
2022/04/12 07:12:37;;;;;;;;;;;12.10;99.90;;;;;;5033525;28;20041;-61
2022/04/12 07:15:04;;;;;;;15.93;5.00;;;12.00;99.90;;;;;;5030882;28;19931;-61
2022/04/12 07:17:29;;;;;;;15.38;5.03;;;12.10;99.90;;;;;;5034757;28;20025;-61
2022/04/12 07:19:55;;;;;;;21.42;8.93;;;12.10;99.90;;;;;;5034458;28;20433;-61
2022/04/12 07:22:21;;;;;;;14.93;5.10;;;12.10;99.90;;;;;;5034433;28;20445;-61
2022/04/12 07:24:47;;;;;;;18.42;4.82;;;12.00;99.90;;;;;;5034244;28;20191;-61
2022/04/12 07:27:13;;;;;;;21.75;7.03;;;12.10;99.90;;;;;;5032484;28;20625;-61
2022/04/12 07:29:39;;;;;;;18.80;6.32;;;12.00;99.90;;;;;;5031381;28;20033;-61
2022/04/12 07:32:05;;;;;;;20.02;4.82;;;12.00;99.90;;;;;;5035596;28;20128;-60
2022/04/12 07:34:31;;;;;;;20.35;5.20;;;12.00;99.90;;;;;;5032643;28;20030;-61
2022/04/12 07:36:57;;;;;;;17.98;4.72;;;12.00;99.90;;;;;;5032707;28;20044;-61
2022/04/12 07:39:24;;;;;;;19.58;5.22;;;12.10;99.90;;;;;;5033656;28;20107;-61
2022/04/12 07:41:51;;;;;;;18.50;6.75;;;12.00;99.90;;;;;;5029759;28;20100;-61
2022/04/12 07:44:19;;;;;;;21.10;7.40;;;11.90;99.90;;;;;;5035952;28;20296;-61
2022/04/12 07:46:45;;;;;;;20.55;11.05;;;12.00;99.90;;;;;;5034008;28;20030;-60
2022/04/12 07:49:11;;;;;;;26.90;11.45;;;12.10;99.90;;;;;;5033958;28;20029;-61
2022/04/12 07:51:37;;;;;;;23.80;9.40;;;12.10;99.90;;;;;;5033885;28;20052;-61
2022/04/12 07:54:04;;;;;;;22.63;6.63;;;12.00;99.90;;;;;;5030786;28;20405;-61
2022/04/12 07:56:30;;;;;;;22.52;6.88;;;11.90;99.90;;;;;;5033873;28;20056;-61
2022/04/12 07:58:56;;;;;;;28.05;11.93;;;11.90;99.90;;;;;;5034764;28;20163;-61
2022/04/12 08:01:22;;;;;;;20.92;5.18;;;11.80;99.90;;;;;;5033538;28;20108;-61
2022/04/12 08:03:48;;;;;;;17.40;5.40;;;11.80;99.90;;;;;;5033866;28;20036;-61
2022/04/12 08:06:14;;;;;;;16.40;4.72;;;11.90;99.90;;;;;;5032276;28;20032;-61
2022/04/12 08:08:40;;;;;;;20.95;6.13;;;11.90;99.90;;;;;;5030909;28;20166;-61
2022/04/12 08:11:07;;;;;;;17.98;6.30;;;11.90;99.90;;;;;;5035585;28;20026;-61
2022/04/12 08:13:33;;;;;;;21.63;7.00;;;11.90;99.90;;;;;;5031541;28;20030;-61
2022/04/12 08:15:59;;;;;;;17.92;6.38;;;12.00;99.90;;;;;;5031747;28;20103;-61
2022/04/12 08:18:25;;;;;;;16.75;4.70;;;11.90;99.90;;;;;;5033532;28;20150;-60
2022/04/12 08:20:51;;;;;;;19.45;5.70;;;11.70;99.90;;;;;;5014098;28;20080;-61
2022/04/12 08:23:17;;;;;;;19.45;6.47;;;11.70;99.90;;;;;;5035857;28;20026;-60
2022/04/12 08:25:43;;;;;;;18.55;5.47;;;11.70;99.90;;;;;;5034581;28;20030;-61
2022/04/12 08:28:09;;;;;;;17.70;5.90;;;11.70;99.90;;;;;;5037581;28;20032;-61
2022/04/12 08:30:36;;;;;;;19.02;4.60;;;11.70;99.90;;;;;;5036948;28;20120;-61
2022/04/12 08:33:02;;;;;;;18.60;5.30;;;11.80;99.90;;;;;;5034709;28;20038;-60
2022/04/12 08:35:28;;;;;;;18.58;5.18;;;11.80;99.90;;;;;;5037433;28;20072;-61
2022/04/12 08:37:54;;;;;;;18.60;4.15;;;11.70;99.90;;;;;;5038038;28;20064;-61
2022/04/12 08:40:20;;;;;;;15.55;4.97;;;11.70;99.90;;;;;;5037263;28;20021;-61
2022/04/12 08:42:47;;;;;;;15.43;4.38;;;11.80;99.90;;;;;;5037113;28;20044;-61
2022/04/12 08:45:12;;;;;;;19.95;4.07;;;11.80;99.90;;;;;;5035525;28;20022;-61
2022/04/12 08:47:39;;;;;;;18.30;4.60;;;11.70;99.90;;;;;;5034743;28;20033;-61
2022/04/12 08:50:07;;;;;;;20.75;5.05;;;11.70;99.90;;;;;;5039174;28;20056;-61
2022/04/12 08:52:35;;;;;;;17.08;4.95;;;11.80;99.90;;;;;;5035767;28;20029;-61
2022/04/12 08:55:04;;;;;;;20.67;4.88;;;11.70;99.90;;;;;;5036023;28;20437;-61
2022/04/12 08:57:30;;;;;;;16.48;4.70;;;11.80;99.90;;;;;;5037144;28;20029;-61
2022/04/12 08:59:56;;;;;;;17.63;4.95;;;11.80;99.90;;;;;;5032642;28;20030;-61
2022/04/12 09:02:23;;;;;;;17.50;4.55;;;11.80;99.90;;;;;;5038668;28;20041;-61
2022/04/12 09:04:49;;;;;;;15.93;4.93;;;11.80;99.90;;;;;;5035419;28;20099;-61
2022/04/12 09:07:15;;;;;;;19.50;5.20;;;11.80;99.90;;;;;;5036823;28;20521;-60
2022/04/12 09:09:44;;;;;;;19.73;4.70;;;12.00;99.90;;;;;;5035095;28;20024;-61
2022/04/12 09:12:12;;;;;;;21.25;4.55;;;11.90;99.90;;;;;;5033498;28;20114;-61
2022/04/12 09:14:57;;;;;;;18.95;4.88;;;12.00;99.90;;;;;;5034291;28;20112;-61
2022/04/12 09:17:31;;;;;;;16.13;4.35;;;12.00;99.90;;;;;;5046345;28;20501;-61
2022/04/12 09:19:57;;;;;;;;;;;12.20;99.90;;;;;;5038134;28;20112;-61
2022/04/12 09:22:27;;;;;;;17.80;4.45;;;12.10;99.90;;;;;;5035050;28;20318;-61
2022/04/12 09:24:58;;;;;;;14.63;4.20;;;12.20;99.90;;;;;;5036254;28;20108;-61
2022/04/12 09:27:29;;;;;;;21.10;5.25;;;12.20;99.90;;;;;;5036137;28;20100;-61
2022/04/12 09:29:57;;;;;;;17.00;5.18;;;12.30;99.90;;;;;;5013729;28;20493;-62
2022/04/12 09:32:24;;;;;;;19.08;6.80;;;12.30;99.90;;;;;;5038083;28;20558;-62
2022/04/12 09:34:51;;;;;;;19.83;8.10;;;12.30;99.90;;;;;;5037017;28;20127;-62
2022/04/12 09:37:18;;;;;;;34.72;18.30;;;12.40;99.90;;;;;;5034223;28;20045;-61
2022/04/12 09:40:08;;;;;;;19.73;6.78;;;12.40;99.90;;;;;;5036317;28;20529;-62
2022/04/12 09:42:42;;;;;;;15.75;4.53;;;12.50;99.90;;;;;;5032636;28;20040;-61
2022/04/12 09:45:10;;;;;;;17.27;4.53;;;12.50;99.90;;;;;;5033718;28;20509;-62
2022/04/12 09:47:36;;;;;;;18.40;4.45;;;12.60;99.90;;;;;;5035322;28;20025;-62
2022/04/12 09:50:03;;;;;;;14.85;4.80;;;12.70;99.90;;;;;;5035884;28;20037;-62
2022/04/12 09:52:29;;;;;;;19.77;5.50;;;12.70;99.90;;;;;;5035580;28;20034;-61
2022/04/12 09:54:56;;;;;;;14.52;4.70;;;12.80;99.90;;;;;;5035744;28;20025;-61
2022/04/12 09:57:23;;;;;;;18.23;5.00;;;13.00;99.90;;;;;;5035021;28;20079;-61
2022/04/12 09:59:53;;;;;;;15.85;4.15;;;13.20;99.90;;;;;;5032084;28;20028;-61
2022/04/12 10:02:19;;;;;;;14.32;4.25;;;13.30;99.90;;;;;;5037710;28;20491;-61
2022/04/12 10:04:46;;;;;;;14.07;4.40;;;13.50;99.90;;;;;;5035717;28;20018;-61
2022/04/12 10:07:17;;;;;;;16.00;4.82;;;13.70;99.90;;;;;;5035910;28;20034;-61
2022/04/12 10:09:43;;;;;;;19.83;4.53;;;13.70;99.90;;;;;;5034377;28;20421;-61
2022/04/12 10:12:09;;;;;;;19.70;5.50;;;13.70;99.90;;;;;;5031449;28;20033;-61
2022/04/12 10:14:35;;;;;;;15.10;4.35;;;13.50;99.90;;;;;;5031673;28;20028;-62
2022/04/12 10:17:02;;;;;;;14.75;4.80;;;13.60;99.90;;;;;;5032800;28;20120;-63
2022/04/12 10:19:31;;;;;;;18.30;4.43;;;13.60;99.90;;;;;;5036100;28;20061;-62
2022/04/12 10:21:56;;;;;;;15.93;3.70;;;13.80;99.90;;;;;;5035044;28;20132;-61
2022/04/12 10:24:23;;;;;;;12.90;3.63;;;13.90;99.90;;;;;;5034458;28;20025;-61
2022/04/12 10:26:51;;;;;;;12.85;3.75;;;13.80;99.90;;;;;;5030517;28;20567;-61
2022/04/12 10:29:16;;;;;;;17.52;4.93;;;13.70;99.90;;;;;;5036394;28;20048;-61
2022/04/12 10:32:00;;;;;;;13.07;3.75;;;13.80;99.90;;;;;;5035275;28;20486;-61
2022/04/12 10:34:26;;;;;;;15.73;4.10;;;14.10;99.90;;;;;;5034993;28;20116;-61
2022/04/12 10:36:55;;;;;;;14.48;4.20;;;14.50;99.90;;;;;;5034808;28;20162;-62
2022/04/12 10:39:34;;;;;;;17.05;3.80;;;14.40;99.90;;;;;;5033963;28;20032;-62
2022/04/12 10:42:09;;;;;;;16.88;4.18;;;14.70;99.90;;;;;;5016145;28;20060;-62
2022/04/12 10:44:44;;;;;;;14.43;3.85;;;14.80;99.90;;;;;;5033336;28;20049;-61
2022/04/12 10:47:31;;;;;;;16.70;3.95;;;14.70;99.90;;;;;;5035467;28;20029;-60
2022/04/12 10:50:10;;;;;;;14.15;3.75;;;14.90;99.90;;;;;;5035250;28;20048;-61
2022/04/12 10:52:47;;;;;;;13.05;3.47;;;15.20;99.90;;;;;;5033392;28;20042;-61
2022/04/12 10:55:40;;;;;;;13.10;4.05;;;15.30;99.90;;;;;;5034455;28;20379;-60
2022/04/12 10:58:29;;;;;;;12.40;3.80;;;15.30;99.90;;;;;;5034845;28;20108;-61
2022/04/12 11:00:55;;;;;;;12.98;3.55;;;15.10;99.90;;;;;;5034319;28;20521;-60
2022/04/12 11:03:46;;;;;;;10.00;3.60;;;15.40;99.90;;;;;;5033814;28;20025;-61
2022/04/12 11:06:24;;;;;;;15.82;4.07;;;16.00;99.90;;;;;;5015344;28;20502;-60
2022/04/12 11:09:17;;;;;;;13.07;3.58;;;15.80;99.90;;;;;;5030891;28;20056;-60
2022/04/12 11:11:48;;;;;;;12.77;3.57;;;16.30;99.90;;;;;;5042791;28;20044;-61
2022/04/12 11:14:36;;;;;;;15.07;3.78;;;16.90;99.90;;;;;;5036554;28;20038;-61
2022/04/12 11:17:12;;;;;;;14.80;3.83;;;16.80;99.90;;;;;;5035993;28;20029;-61
2022/04/12 11:19:45;;;;;;;10.80;3.55;;;17.30;99.90;;;;;;5033745;28;20032;-60
2022/04/12 11:22:15;;;;;;;13.00;3.90;;;17.50;99.90;;;;;;5034112;28;20065;-60
2022/04/12 11:24:41;;;;;;;13.60;3.50;;;17.60;99.90;;;;;;5033933;28;20021;-61
2022/04/12 11:27:08;;;;;;;15.68;3.47;;;17.70;99.90;;;;;;5030025;28;20022;-61
2022/04/12 11:29:35;;;;;;;10.23;3.13;;;17.70;99.90;;;;;;5033147;28;20044;-60
2022/04/12 11:32:02;;;;;;;12.40;3.60;;;17.50;99.90;;;;;;5034045;28;20048;-61
2022/04/12 11:34:29;;;;;;;12.20;3.70;;;17.90;99.90;;;;;;5032968;28;20018;-61
2022/04/12 11:37:00;;;;;;;14.82;3.95;;;17.60;99.90;;;;;;5033712;28;20041;-61
2022/04/12 11:39:28;;;;;;;9.27;3.53;;;18.10;99.90;;;;;;5034055;28;20028;-61
2022/04/12 11:41:59;;;;;;;14.20;3.60;;;18.10;99.90;;;;;;5028563;28;20034;-61
2022/04/12 11:44:26;;;;;;;11.80;3.80;;;18.40;99.90;;;;;;5043835;28;20029;-61
2022/04/12 11:47:02;;;;;;;13.00;3.55;;;18.40;99.90;;;;;;5034525;28;20115;-61
2022/04/12 11:49:36;;;;;;;12.23;3.53;;;18.70;99.90;;;;;;5033920;28;20026;-61
2022/04/12 11:52:13;;;;;;;10.45;3.17;;;18.70;99.90;;;;;;5033769;28;20048;-60
2022/04/12 11:54:48;;;;;;;11.90;3.25;;;19.10;99.90;;;;;;5033592;28;20025;-61
2022/04/12 11:57:21;;;;;;;15.57;3.78;;;18.70;99.90;;;;;;5032143;28;20394;-61
2022/04/12 11:59:50;;;;;;;13.85;3.53;;;18.80;99.90;;;;;;5031706;28;20108;-61
2022/04/12 12:02:38;;;;;;;10.85;3.42;;;18.70;99.90;;;;;;5040071;28;20030;-61
2022/04/12 12:05:09;;;;;;;13.35;3.42;;;18.40;99.90;;;;;;5037780;28;20021;-61
2022/04/12 12:07:36;;;;;;;13.60;3.60;;;18.10;99.90;;;;;;5036191;28;20029;-61
2022/04/12 12:10:15;;;;;;;11.40;3.33;;;18.70;99.90;;;;;;5036862;28;20072;-61
2022/04/12 12:12:45;;;;;;;13.07;3.30;;;18.20;99.90;;;;;;5037797;28;20490;-61
2022/04/12 12:15:14;;;;;;;15.20;3.40;;;18.30;99.90;;;;;;5035526;28;20461;-61
2022/04/12 12:17:40;;;;;;;14.32;3.90;;;17.60;99.90;;;;;;5035118;28;20031;-61
2022/04/12 12:20:07;;;;;;;14.52;3.47;;;17.70;99.90;;;;;;5039497;28;20033;-61
2022/04/12 12:22:38;;;;;;;13.40;3.20;;;18.60;99.90;;;;;;5037406;28;20032;-61
2022/04/12 12:25:05;;;;;;;12.55;3.88;;;18.80;99.90;;;;;;5037742;28;20375;-61
2022/04/12 12:27:38;;;;;;;12.32;3.60;;;18.70;99.90;;;;;;5037996;28;20286;-61
2022/04/12 12:30:04;;;;;;;13.55;4.32;;;18.40;99.90;;;;;;5034445;28;20056;-61
2022/04/12 12:32:35;;;;;;;15.32;4.03;;;18.70;99.90;;;;;;5037346;28;20491;-61
2022/04/12 12:35:05;;;;;;;14.20;3.28;;;18.60;99.90;;;;;;5039133;28;20486;-62
2022/04/12 12:37:31;;;;;;;13.57;3.45;;;18.40;99.90;;;;;;5037044;28;20067;-60
2022/04/12 12:39:57;;;;;;;11.32;3.40;;;18.00;99.90;;;;;;5037371;28;20025;-61
2022/04/12 12:42:23;;;;;;;13.07;3.33;;;17.70;99.90;;;;;;5037205;28;20044;-61